Time;durP1;ratioP1;P1;durP2;ratioP2;P2;SDS_P1;SDS_P2;PMS_P1;PMS_P2;Temp;Humidity;BMP_temperature;BMP_pressure;BME280_temperature;BME280_humidity;BME280_pressure;Samples;Min_cycle;Max_cycle;Signal;HPM_P1;HPM_P2
2021/12/07 00:01:35;;;;;;;15.43;2.78;;;;;;;4.26;91.80;100582.22;5032501;28;20037;-71
2021/12/07 00:04:00;;;;;;;17.95;3.10;;;;;;;4.20;92.80;100592.22;5031863;28;20040;-71
2021/12/07 00:06:26;;;;;;;13.70;2.80;;;;;;;4.27;90.23;100583.88;5032312;28;20108;-71
2021/12/07 00:08:54;;;;;;;14.35;2.70;;;;;;;4.28;89.52;100591.69;5032260;28;20044;-73
2021/12/07 00:11:22;;;;;;;15.73;3.80;;;;;;;4.30;89.26;100596.84;5032240;28;20436;-71
2021/12/07 00:13:47;;;;;;;16.15;2.78;;;;;;;4.23;90.23;100606.97;5032318;28;20041;-71
2021/12/07 00:16:13;;;;;;;20.63;3.13;;;;;;;4.12;91.48;100612.09;5031746;28;20155;-71
2021/12/07 00:18:40;;;;;;;13.15;2.47;;;;;;;4.12;89.66;100602.44;5031037;28;20362;-72
2021/12/07 00:21:07;;;;;;;30.00;2.95;;;;;;;4.11;89.56;100605.19;5031714;28;20095;-71
2021/12/07 00:23:34;;;;;;;11.20;2.58;;;;;;;4.17;88.06;100605.59;5032408;28;20068;-71
2021/12/07 00:26:00;;;;;;;18.27;2.97;;;;;;;4.20;88.27;100599.28;5030277;28;20470;-71
2021/12/07 00:28:25;;;;;;;16.60;2.45;;;;;;;4.16;88.44;100616.22;5031085;28;20223;-71
2021/12/07 00:30:52;;;;;;;19.45;3.05;;;;;;;4.16;88.26;100622.31;5031948;28;20033;-71
2021/12/07 00:35:52;;;;;;;17.55;3.75;;;;;;;4.36;87.44;100625.41;5031708;28;20041;-72
2021/12/07 00:38:23;;;;;;;17.98;3.28;;;;;;;4.30;88.20;100626.69;5031530;28;20853;-72
2021/12/07 00:40:50;;;;;;;23.30;3.03;;;;;;;4.22;89.14;100634.25;5030964;28;20136;-72
2021/12/07 00:43:15;;;;;;;13.55;2.78;;;;;;;4.15;88.52;100635.59;5031494;28;20057;-71
2021/12/07 00:45:45;;;;;;;18.98;2.88;;;;;;;4.18;87.27;100628.34;5031963;28;20041;-71
2021/12/07 00:48:12;;;;;;;20.75;2.58;;;;;;;4.21;87.52;100641.31;5031144;28;20040;-71
2021/12/07 00:50:41;;;;;;;17.23;3.35;;;;;;;4.23;87.06;100649.13;5032085;28;20114;-71
2021/12/07 00:53:07;;;;;;;13.02;2.50;;;;;;;4.20;86.33;100638.78;5031358;28;20125;-72
2021/12/07 00:55:38;;;;;;;16.88;3.30;;;;;;;4.22;85.46;100653.53;5031874;28;20112;-70
2021/12/07 00:58:13;;;;;;;12.35;2.60;;;;;;;4.21;85.52;100653.63;5030134;28;20030;-72
2021/12/07 01:00:40;;;;;;;11.38;2.65;;;;;;;4.19;86.32;100656.34;5031756;28;20037;-73
2021/12/07 01:03:05;;;;;;;13.57;3.78;;;;;;;4.14;86.55;100668.16;5031402;28;20041;-73
2021/12/07 01:05:34;;;;;;;17.70;3.40;;;;;;;4.15;86.55;100675.09;5030762;28;20037;-69
2021/12/07 01:26:53;;;;;;;16.55;2.85;;;;;;;3.99;86.10;100702.44;5032051;28;20100;-71
2021/12/07 01:29:21;;;;;;;12.48;2.85;;;;;;;4.01;85.20;100692.66;5030884;28;20038;-71
2021/12/07 01:32:06;;;;;;;10.70;2.35;;;;;;;4.08;85.47;100702.81;5031480;28;20470;-70
2021/12/07 01:37:33;;;;;;;16.10;2.85;;;;;;;4.03;86.08;100710.97;5031040;28;20111;-72
2021/12/07 01:40:32;;;;;;;11.73;2.50;;;;;;;3.95;86.42;100726.44;5031639;28;20034;-71
2021/12/07 01:51:48;;;;;;;12.82;2.88;;;;;;;3.89;87.40;100754.84;5035352;28;20076;-71
2021/12/07 02:01:48;;;;;;;12.48;2.10;;;;;;;4.17;86.25;100766.22;5035008;28;20052;-71
2021/12/07 02:04:13;;;;;;;13.68;2.20;;;;;;;4.17;86.38;100768.88;5034812;28;20124;-71
2021/12/07 02:06:38;;;;;;;15.27;2.97;;;;;;;4.20;85.95;100762.56;5035052;28;20458;-71
2021/12/07 02:09:06;;;;;;;19.65;3.13;;;;;;;4.15;85.66;100770.78;5033834;28;20064;-71
2021/12/07 02:11:32;;;;;;;13.57;2.35;;;;;;;4.17;84.77;100781.19;5034203;28;20022;-72
2021/12/07 02:16:27;;;;;;;11.30;2.35;;;;;;;4.08;85.46;100779.16;5034019;28;20033;-71
2021/12/07 02:18:52;;;;;;;16.00;2.92;;;;;;;4.00;86.24;100779.63;5034711;28;20025;-72
2021/12/07 02:21:24;;;;;;;13.93;2.63;;;;;;;3.94;86.42;100791.44;5033916;28;20040;-72
2021/12/07 02:23:50;;;;;;;17.88;2.53;;;;;;;3.96;86.97;100789.53;5034592;28;20399;-71
2021/12/07 02:26:16;;;;;;;18.15;2.78;;;;;;;4.04;85.94;100797.78;5033889;28;20038;-72
2021/12/07 02:28:42;;;;;;;14.68;2.40;;;;;;;4.04;86.25;100797.78;5034533;28;20592;-71
2021/12/07 02:31:09;;;;;;;13.82;2.33;;;;;;;4.05;86.29;100801.28;5034638;28;20034;-71
2021/12/07 02:33:36;;;;;;;17.00;2.63;;;;;;;3.99;86.64;100807.75;5033950;28;20042;-71
2021/12/07 02:36:03;;;;;;;17.67;2.45;;;;;;;4.04;86.19;100810.09;5034101;28;20052;-71
2021/12/07 02:38:28;;;;;;;14.88;2.58;;;;;;;4.03;86.33;100811.03;5033836;28;20100;-72
2021/12/07 02:40:53;;;;;;;12.90;2.35;;;;;;;4.03;86.66;100818.94;5034222;28;20130;-72
2021/12/07 02:43:20;;;;;;;13.45;2.63;;;;;;;4.07;86.43;100815.16;5033337;28;20046;-71
2021/12/07 02:45:45;;;;;;;21.73;3.10;;;;;;;4.20;85.80;100818.72;5033208;28;20448;-71
2021/12/07 02:48:11;;;;;;;16.25;2.45;;;;;;;4.32;85.11;100818.88;5032853;28;20033;-71
2021/12/07 02:50:36;;;;;;;20.90;2.70;;;;;;;4.36;84.96;100815.94;5033445;28;20083;-72
2021/12/07 02:53:02;;;;;;;15.07;2.42;;;;;;;4.36;85.20;100821.22;5034091;28;20369;-71
2021/12/07 02:55:30;;;;;;;18.20;2.55;;;;;;;4.40;84.56;100822.72;5033363;28;20045;-72
2021/12/07 02:57:56;;;;;;;16.63;3.10;;;;;;;4.40;84.67;100819.22;5033851;28;20041;-72
2021/12/07 03:00:26;;;;;;;17.15;2.78;;;;;;;4.37;85.21;100824.69;5032829;28;20092;-72
2021/12/07 03:02:57;;;;;;;22.65;3.03;;;;;;;4.34;85.59;100838.06;5033829;28;20034;-71
2021/12/07 03:26:53;;;;;;;17.60;3.78;;;;;;;4.43;85.53;100858.53;5033246;28;20103;-73
2021/12/07 03:29:19;;;;;;;18.13;2.10;;;;;;;4.43;85.53;100865.59;5032757;28;20037;-76
2021/12/07 03:31:45;;;;;;;18.95;3.25;;;;;;;4.45;84.92;100863.69;5033322;28;20178;-71
2021/12/07 03:34:10;;;;;;;10.75;2.72;;;;;;;4.41;85.46;100873.59;5033310;28;20061;-71
2021/12/07 03:36:36;;;;;;;11.73;2.35;;;;;;;4.41;85.05;100870.97;5032693;28;20076;-71
2021/12/07 03:39:04;;;;;;;12.27;1.85;;;;;;;4.41;85.12;100879.72;5033107;28;20025;-71
2021/12/07 03:41:30;;;;;;;15.88;2.45;;;;;;;4.39;85.06;100873.69;5032425;28;20073;-71
2021/12/07 03:43:55;;;;;;;13.38;2.80;;;;;;;4.39;84.74;100867.59;5032723;28;20088;-71
2021/12/07 03:46:21;;;;;;;18.25;2.30;;;;;;;4.41;83.86;100861.25;5032676;28;20025;-76
2021/12/07 03:48:46;;;;;;;20.38;2.90;;;;;;;4.39;83.97;100875.50;5032820;28;20029;-69
2021/12/07 03:51:12;;;;;;;17.48;2.38;;;;;;;4.31;84.62;100878.59;5032841;28;20060;-70
2021/12/07 03:53:37;;;;;;;17.10;2.55;;;;;;;4.25;84.89;100879.00;5032245;28;20082;-69
2021/12/07 03:56:04;;;;;;;16.17;2.50;;;;;;;4.17;85.47;100868.13;5032714;28;20041;-70
2021/12/07 03:58:29;;;;;;;19.88;2.55;;;;;;;4.18;85.00;100875.91;5031980;28;20123;-70
2021/12/07 04:00:55;;;;;;;20.15;2.17;;;;;;;4.13;85.36;100875.34;5032657;28;20434;-69
2021/12/07 04:03:21;;;;;;;13.68;2.25;;;;;;;4.08;84.54;100877.44;5032709;28;20037;-69
2021/12/07 04:05:52;;;;;;;12.63;2.20;;;;;;;4.05;85.06;100875.00;5032554;28;20044;-70
2021/12/07 04:08:20;;;;;;;19.67;2.20;;;;;;;4.06;85.04;100892.47;5032526;28;20037;-70
2021/12/07 04:10:46;;;;;;;10.80;2.08;;;;;;;4.09;83.88;100876.50;5031031;28;20412;-70
2021/12/07 04:13:13;;;;;;;15.00;2.97;;;;;;;4.11;84.00;100879.03;5032343;28;20468;-70
2021/12/07 04:15:39;;;;;;;19.98;2.50;;;;;;;4.09;84.49;100891.44;5031918;28;20492;-69
2021/12/07 04:18:05;;;;;;;10.93;2.60;;;;;;;4.04;84.42;100891.72;5032499;28;20065;-69
2021/12/07 04:20:31;;;;;;;12.70;2.30;;;;;;;4.05;84.44;100880.25;5031746;28;20040;-70
2021/12/07 04:22:57;;;;;;;14.02;2.58;;;;;;;4.08;83.96;100897.66;5031188;28;20037;-71
2021/12/07 04:25:23;;;;;;;9.63;2.60;;;;;;;4.09;84.22;100892.31;5032274;28;20037;-71
2021/12/07 04:27:51;;;;;;;15.23;2.10;;;;;;;4.05;84.36;100890.78;5031820;28;20108;-71
2021/12/07 04:30:21;;;;;;;15.85;2.53;;;;;;;4.05;84.66;100906.59;5032381;28;20037;-71
2021/12/07 04:32:46;;;;;;;15.30;3.25;;;;;;;4.08;84.61;100910.84;5031707;28;20022;-70
2021/12/07 04:35:14;;;;;;;16.58;2.78;;;;;;;4.13;84.23;100899.03;5032317;28;20038;-71
2021/12/07 04:37:40;;;;;;;11.93;2.97;;;;;;;4.23;83.62;100902.78;5031592;28;20025;-70
2021/12/07 04:40:10;;;;;;;18.60;2.92;;;;;;;4.29;83.92;100916.53;5032000;28;20025;-71
2021/12/07 04:42:36;;;;;;;8.90;2.22;;;;;;;4.32;83.59;100908.44;5031042;28;20039;-71
2021/12/07 04:45:05;;;;;;;13.85;2.50;;;;;;;4.28;83.62;100905.13;5032151;28;20373;-71
2021/12/07 04:47:49;;;;;;;14.45;2.75;;;;;;;4.24;84.02;100911.56;5031325;28;20037;-71
2021/12/07 04:50:33;;;;;;;14.52;2.63;;;;;;;4.26;84.34;100909.66;5032033;28;20033;-71
2021/12/07 04:58:26;;;;;;;9.13;2.10;;;;;;;4.27;84.67;100913.13;5032181;28;20493;-71
2021/12/07 05:00:52;;;;;;;14.88;2.42;;;;;;;4.26;84.55;100917.56;5031370;28;20037;-71
2021/12/07 05:03:18;;;;;;;10.05;2.55;;;;;;;4.24;84.24;100930.00;5031779;28;20056;-71
2021/12/07 05:05:48;;;;;;;11.52;1.95;;;;;;;4.17;83.93;100934.78;5030113;28;20485;-71
2021/12/07 05:08:17;;;;;;;17.00;2.10;;;;;;;4.17;84.18;100937.44;5031622;28;20545;-72
2021/12/07 05:39:45;;;;;;;11.98;2.45;;;;;;;3.55;85.33;100982.38;5034843;28;20080;-71
2021/12/07 05:42:11;;;;;;;11.35;2.15;;;;;;;3.48;85.69;100981.09;5035433;28;20057;-72
2021/12/07 05:44:37;;;;;;;6.18;1.73;;;;;;;3.50;85.05;100980.03;5033479;28;20480;-76
2021/12/07 05:47:07;;;;;;;9.38;2.03;;;;;;;3.50;84.87;100976.56;5033969;28;20053;-72
2021/12/07 05:49:34;;;;;;;21.05;2.10;;;;;;;3.48;85.00;100970.56;5035362;28;20030;-72
2021/12/07 05:52:00;;;;;;;13.57;2.03;;;;;;;3.42;84.58;100965.63;5034827;28;20041;-71
2021/12/07 05:54:25;;;;;;;15.38;2.50;;;;;;;3.38;84.71;100966.78;5035162;28;20083;-71
2021/12/07 05:56:50;;;;;;;14.13;2.72;;;;;;;3.32;85.05;100963.53;5033282;28;20083;-71
2021/12/07 05:59:16;;;;;;;13.15;2.72;;;;;;;3.33;85.21;100962.63;5035009;28;20401;-71
2021/12/07 06:01:41;;;;;;;12.75;2.70;;;;;;;3.30;85.08;100961.94;5034246;28;20061;-71
2021/12/07 06:04:07;;;;;;;16.30;2.25;;;;;;;3.22;85.36;100959.75;5031855;28;20034;-76
2021/12/07 06:06:32;;;;;;;11.18;2.58;;;;;;;3.12;85.55;100964.72;5033444;28;20502;-71
2021/12/07 06:08:57;;;;;;;12.20;2.45;;;;;;;2.98;86.02;100967.25;5034231;28;20033;-72
2021/12/07 06:11:24;;;;;;;18.75;2.70;;;;;;;2.81;87.07;100971.69;5034708;28;20033;-70
2021/12/07 06:13:53;;;;;;;19.95;3.00;;;;;;;2.70;87.70;100973.22;5034185;28;20535;-71
2021/12/07 06:16:21;;;;;;;11.57;2.35;;;;;;;2.55;88.09;100974.91;5034876;28;20038;-71
2021/12/07 06:18:47;;;;;;;13.93;2.83;;;;;;;2.45;88.67;100970.16;5032961;28;20033;-72
2021/12/07 06:21:13;;;;;;;13.20;2.30;;;;;;;2.46;88.98;100969.25;5034573;28;20041;-72
2021/12/07 06:23:39;;;;;;;9.30;1.92;;;;;;;2.39;89.25;100965.25;5034612;28;20025;-74
2021/12/07 06:26:05;;;;;;;15.38;2.22;;;;;;;2.29;88.92;100959.63;5017744;28;20038;-72
2021/12/07 06:28:31;;;;;;;11.57;2.25;;;;;;;2.16;89.11;100966.47;5011971;28;20037;-72
2021/12/07 06:30:57;;;;;;;11.30;2.42;;;;;;;2.11;90.13;100969.34;5011133;28;20037;-73
2021/12/07 06:33:24;;;;;;;10.48;2.00;;;;;;;2.13;90.45;100968.44;5014624;28;20393;-74
2021/12/07 06:35:56;;;;;;;10.73;2.20;;;;;;;2.14;90.56;100970.13;5011457;28;20088;-73
2021/12/07 06:38:22;;;;;;;15.88;2.47;;;;;;;2.03;90.03;100971.53;5011491;28;20065;-72
2021/12/07 06:40:48;;;;;;;8.02;2.28;;;;;;;1.90;90.27;100975.75;5009745;28;20038;-73
2021/12/07 06:43:14;;;;;;;10.45;2.70;;;;;;;1.77;91.03;100973.72;5011783;28;20053;-73
2021/12/07 06:45:40;;;;;;;14.23;2.42;;;;;;;1.61;91.36;100978.06;5011879;28;20041;-72
2021/12/07 06:48:07;;;;;;;7.95;2.47;;;;;;;1.50;91.57;100970.75;5009871;28;20125;-73
2021/12/07 06:50:33;;;;;;;9.57;2.60;;;;;;;1.43;92.74;100976.38;5009911;28;20026;-73
2021/12/07 06:52:58;;;;;;;20.65;3.03;;;;;;;1.35;93.85;100969.75;5009761;28;20095;-72
2021/12/07 06:55:23;;;;;;;14.82;2.40;;;;;;;1.37;94.82;100975.78;5010187;28;20042;-72
2021/12/07 06:57:49;;;;;;;13.82;2.40;;;;;;;1.37;95.01;100973.16;5010688;28;20115;-73
2021/12/07 07:00:17;;;;;;;11.73;2.55;;;;;;;1.36;95.40;100975.84;5011668;28;20113;-73
2021/12/07 07:02:42;;;;;;;12.90;3.38;;;;;;;1.32;95.47;100974.31;5010920;28;20100;-72
2021/12/07 07:05:08;;;;;;;12.68;2.60;;;;;;;1.26;95.38;100978.06;5010768;28;20524;-71
2021/12/07 07:07:34;;;;;;;9.85;2.50;;;;;;;1.20;94.89;100976.59;5011539;28;20037;-72
2021/12/07 07:10:00;;;;;;;11.27;3.08;;;;;;;1.15;95.14;100982.97;5010887;28;20389;-72
2021/12/07 07:12:26;;;;;;;12.95;3.00;;;;;;;1.11;95.63;100982.28;5011144;28;20088;-73
2021/12/07 07:14:51;;;;;;;12.63;3.00;;;;;;;1.05;96.09;100985.22;5024059;28;20034;-71
2021/12/07 07:17:16;;;;;;;8.90;2.42;;;;;;;1.02;95.43;100975.72;5032057;28;20037;-70
2021/12/07 07:19:42;;;;;;;9.55;2.55;;;;;;;1.02;95.13;100967.03;5033753;28;20040;-70
2021/12/07 07:22:07;;;;;;;9.60;3.10;;;;;;;1.01;95.83;100973.19;5032157;28;20434;-70
2021/12/07 07:24:33;;;;;;;8.82;2.40;;;;;;;1.01;95.80;100968.78;5033607;28;20469;-70
2021/12/07 07:26:59;;;;;;;11.88;2.47;;;;;;;1.01;95.78;100952.22;5033254;28;20489;-71
2021/12/07 07:29:26;;;;;;;9.98;3.00;;;;;;;0.99;95.84;100947.03;5033488;28;20072;-72
2021/12/07 07:31:51;;;;;;;12.02;2.90;;;;;;;0.95;95.92;100945.50;5033258;28;20029;-70
2021/12/07 07:34:17;;;;;;;12.73;3.00;;;;;;;0.90;95.85;100950.13;5033838;28;20033;-70
2021/12/07 07:36:43;;;;;;;10.23;2.72;;;;;;;0.86;95.98;100951.19;5033586;28;20490;-71
2021/12/07 07:39:09;;;;;;;8.85;2.58;;;;;;;0.84;96.56;100956.50;5033240;28;20043;-71
2021/12/07 07:41:35;;;;;;;10.85;2.90;;;;;;;0.86;97.33;100952.03;5033327;28;20026;-73
2021/12/07 07:44:00;;;;;;;12.23;2.65;;;;;;;0.90;97.44;100947.50;5033107;28;20054;-73
2021/12/07 07:46:26;;;;;;;8.52;2.60;;;;;;;0.97;97.80;100954.16;5033444;28;20120;-72
2021/12/07 07:48:52;;;;;;;11.52;3.20;;;;;;;1.03;98.30;100950.34;5032842;28;20037;-72
2021/12/07 07:51:17;;;;;;;19.23;4.38;;;;;;;1.10;98.87;100953.53;5031910;28;20029;-71
2021/12/07 07:53:43;;;;;;;22.80;3.97;;;;;;;1.16;99.42;100956.69;5033267;28;20029;-72
2021/12/07 07:56:09;;;;;;;16.08;3.60;;;;;;;1.23;99.66;100959.88;5032593;28;20112;-71
2021/12/07 07:58:34;;;;;;;26.38;4.10;;;;;;;1.29;99.79;100956.09;5032989;28;20025;-72
2021/12/07 08:00:59;;;;;;;21.52;3.55;;;;;;;1.33;99.94;100952.38;5032507;28;20068;-72
2021/12/07 08:03:25;;;;;;;16.52;3.25;;;;;;;1.35;99.91;100967.13;5032932;28;20029;-72
2021/12/07 08:05:51;;;;;;;16.63;3.47;;;;;;;1.36;99.85;100962.75;5033330;28;20037;-71
2021/12/07 08:08:16;;;;;;;11.15;3.10;;;;;;;1.35;99.56;100959.25;5032483;28;20034;-71
2021/12/07 08:10:42;;;;;;;13.95;3.40;;;;;;;1.33;99.91;100962.88;5031583;28;20034;-71
2021/12/07 08:13:08;;;;;;;18.83;3.65;;;;;;;1.33;99.62;100957.63;5031227;28;20477;-72
2021/12/07 08:15:39;;;;;;;18.35;4.78;;;;;;;1.37;99.83;100969.66;5032813;28;20036;-72
2021/12/07 08:18:06;;;;;;;12.82;3.70;;;;;;;1.45;100.00;100967.53;5032574;28;20111;-71
2021/12/07 08:20:32;;;;;;;16.35;3.70;;;;;;;1.54;100.00;100968.84;5032889;28;20044;-70
2021/12/07 08:22:58;;;;;;;14.18;4.55;;;;;;;1.67;100.00;100966.41;5032327;28;20045;-71
2021/12/07 08:25:24;;;;;;;16.08;4.15;;;;;;;1.77;100.00;100965.84;5031583;28;20029;-71
2021/12/07 08:27:49;;;;;;;10.57;3.40;;;;;;;1.86;100.00;100961.06;5032543;28;20033;-70
2021/12/07 08:30:16;;;;;;;15.35;3.50;;;;;;;1.97;100.00;100958.75;5031940;28;20037;-71
2021/12/07 08:32:45;;;;;;;11.48;3.92;;;;;;;2.08;100.00;100968.66;5032155;28;20457;-71
2021/12/07 08:35:18;;;;;;;16.10;3.65;;;;;;;2.19;99.84;100966.31;5031937;28;20033;-71
2021/12/07 08:37:46;;;;;;;23.42;4.20;;;;;;;2.25;98.92;100958.09;5032335;28;20029;-73
2021/12/07 08:40:13;;;;;;;11.13;3.42;;;;;;;2.31;98.67;100961.34;5031957;28;20557;-72
2021/12/07 08:42:39;;;;;;;17.95;4.20;;;;;;;2.34;98.10;100958.53;5030835;28;20029;-72
2021/12/07 08:45:06;;;;;;;21.00;3.97;;;;;;;2.38;97.78;100954.84;5030435;28;20098;-72
2021/12/07 08:47:31;;;;;;;14.35;2.95;;;;;;;2.46;97.11;100960.50;5032366;28;20033;-72
2021/12/07 08:49:57;;;;;;;15.73;3.33;;;;;;;2.57;96.79;100970.44;5031885;28;20528;-79
2021/12/07 08:52:23;;;;;;;13.02;3.20;;;;;;;2.59;95.68;100958.91;5014688;28;20493;-72
2021/12/07 09:00:00;;;;;;;12.15;2.92;;;;;;;2.49;95.88;100959.50;5038732;28;20052;-72
2021/12/07 09:02:26;;;;;;;17.45;3.55;;;;;;;2.52;96.34;100961.94;5039067;28;20033;-72
2021/12/07 09:04:56;;;;;;;18.13;3.72;;;;;;;2.60;96.33;100963.22;5038768;28;20401;-71
2021/12/07 09:07:23;;;;;;;16.83;3.40;;;;;;;2.71;96.06;100960.00;5038300;28;20091;-71
2021/12/07 09:09:49;;;;;;;8.75;3.15;;;;;;;2.83;95.91;100959.31;5038671;28;20036;-71
2021/12/07 09:12:15;;;;;;;17.17;2.90;;;;;;;2.94;94.96;100952.59;5038422;28;20029;-71
2021/12/07 09:14:43;;;;;;;15.05;2.80;;;;;;;3.04;94.75;100945.03;5038794;28;20035;-72
2021/12/07 09:17:11;;;;;;;16.63;2.83;;;;;;;3.09;94.03;100949.13;5037336;28;20065;-72
2021/12/07 09:19:37;;;;;;;12.52;2.85;;;;;;;3.16;94.29;100954.84;5038784;28;20026;-70
2021/12/07 09:22:04;;;;;;;14.93;2.95;;;;;;;3.22;93.66;100956.28;5038153;28;20378;-69
2021/12/07 09:24:30;;;;;;;11.07;3.33;;;;;;;3.28;93.56;100948.03;5038519;28;20021;-72
2021/12/07 09:26:55;;;;;;;15.32;3.60;;;;;;;3.39;93.13;100948.28;5038509;28;20427;-71
2021/12/07 09:29:20;;;;;;;11.30;2.92;;;;;;;3.55;92.29;100942.09;5038135;28;20039;-71
2021/12/07 09:31:46;;;;;;;11.90;3.22;;;;;;;3.62;92.54;100941.63;5038666;28;20385;-71
2021/12/07 09:34:12;;;;;;;13.82;3.05;;;;;;;3.65;92.23;100936.19;5038272;28;20095;-71
2021/12/07 09:36:40;;;;;;;11.70;3.00;;;;;;;3.75;91.90;100952.28;5038693;28;20030;-71
2021/12/07 09:39:08;;;;;;;9.02;3.15;;;;;;;3.82;90.80;100953.59;5038012;28;20053;-70
2021/12/07 09:41:33;;;;;;;13.57;3.45;;;;;;;3.85;90.90;100960.44;5038847;28;20037;-71
2021/12/07 09:43:59;;;;;;;17.10;3.90;;;;;;;3.91;90.72;100967.13;5037083;28;20045;-71
2021/12/07 09:46:25;;;;;;;18.15;3.25;;;;;;;3.93;90.47;100960.00;5038108;28;20087;-70
2021/12/07 09:48:51;;;;;;;14.52;3.25;;;;;;;3.97;89.32;100966.75;5038448;28;20045;-73
2021/12/07 09:51:18;;;;;;;21.70;3.70;;;;;;;3.99;89.20;100968.38;5037879;28;20038;-73
2021/12/07 09:53:46;;;;;;;18.67;3.70;;;;;;;4.04;89.25;100981.25;5038378;28;20491;-71
2021/12/07 09:56:12;;;;;;;11.27;3.67;;;;;;;4.08;88.75;100980.13;5036803;28;20034;-71
2021/12/07 09:58:38;;;;;;;12.95;3.28;;;;;;;4.15;88.75;100978.81;5038550;28;20033;-71
2021/12/07 10:01:05;;;;;;;13.38;2.92;;;;;;;4.23;88.26;100973.06;5038411;28;20033;-71
2021/12/07 10:03:31;;;;;;;11.63;3.20;;;;;;;4.32;87.89;100977.78;5038398;28;20493;-71
2021/12/07 10:05:57;;;;;;;17.42;3.40;;;;;;;4.37;86.74;100969.56;5038211;28;20069;-71
2021/12/07 10:08:23;;;;;;;14.57;3.90;;;;;;;4.48;87.26;100964.50;5035456;28;20428;-70
2021/12/07 10:10:54;;;;;;;10.48;3.15;;;;;;;4.53;86.97;100956.28;5034958;28;20037;-70
2021/12/07 10:13:21;;;;;;;29.05;3.72;;;;;;;4.64;86.48;100955.59;5034661;28;20461;-71
2021/12/07 10:15:50;;;;;;;11.43;3.58;;;;;;;4.69;87.07;100951.75;5035211;28;20101;-70
2021/12/07 10:18:22;;;;;;;10.88;2.80;;;;;;;4.76;85.42;100939.84;5034573;28;20029;-70
2021/12/07 10:20:51;;;;;;;16.25;3.00;;;;;;;4.79;84.45;100946.69;5034814;28;20105;-70
2021/12/07 10:23:17;;;;;;;14.10;2.90;;;;;;;4.86;84.55;100937.47;5034440;28;20037;-70
2021/12/07 10:25:54;;;;;;;15.30;3.22;;;;;;;4.91;84.56;100926.59;5034970;28;20022;-72
2021/12/07 10:28:42;;;;;;;13.95;3.10;;;;;;;4.92;83.53;100918.59;5034579;28;20041;-70
2021/12/07 10:31:10;;;;;;;12.40;3.17;;;;;;;4.92;83.95;100915.13;5034597;28;20022;-71
2021/12/07 10:33:42;;;;;;;12.98;3.15;;;;;;;4.88;83.90;100906.59;5034605;28;20030;-72
2021/12/07 10:36:13;;;;;;;13.15;2.88;;;;;;;4.87;83.20;100907.53;5034862;28;20108;-72
2021/12/07 10:38:40;;;;;;;15.68;3.15;;;;;;;4.84;82.55;100894.53;5034883;28;20029;-72
2021/12/07 10:41:11;;;;;;;13.18;3.10;;;;;;;4.76;82.43;100887.13;5034440;28;20440;-72
2021/12/07 10:43:50;;;;;;;11.75;3.10;;;;;;;4.69;82.49;100888.47;5033202;28;20136;-72
2021/12/07 10:46:50;;;;;;;13.18;3.72;;;;;;;4.69;82.31;100885.84;5032814;28;20041;-72
2021/12/07 10:49:33;;;;;;;9.82;2.38;;;;;;;4.69;81.57;100888.47;5026142;28;20072;-72
2021/12/07 10:52:14;;;;;;;14.05;3.03;;;;;;;4.65;81.59;100889.63;5034293;28;20022;-71
2021/12/07 10:54:48;;;;;;;13.35;3.75;;;;;;;4.61;82.62;100887.28;5034560;28;20096;-72
2021/12/07 10:57:21;;;;;;;14.40;4.20;;;;;;;4.58;83.83;100893.59;5033958;28;20029;-72
2021/12/07 11:00:16;;;;;;;12.00;2.97;;;;;;;4.52;82.25;100894.84;5033391;28;20424;-72
2021/12/07 11:02:44;;;;;;;9.13;2.83;;;;;;;4.57;82.22;100890.13;5034164;28;20037;-72
2021/12/07 11:05:16;;;;;;;11.52;3.05;;;;;;;4.56;83.22;100888.41;5034290;28;20049;-72
2021/12/07 11:07:41;;;;;;;11.90;2.80;;;;;;;4.59;83.58;100876.84;5034025;28;20030;-70
2021/12/07 11:10:19;;;;;;;13.27;2.72;;;;;;;4.69;83.43;100872.66;5032935;28;20035;-73
2021/12/07 11:12:50;;;;;;;9.38;3.03;;;;;;;4.75;82.08;100874.06;5033777;28;20068;-72
2021/12/07 11:15:23;;;;;;;11.23;3.13;;;;;;;4.76;82.47;100876.59;5033680;28;20029;-77
2021/12/07 11:17:49;;;;;;;14.35;4.18;;;;;;;4.83;82.06;100860.38;5032906;28;20021;-73
2021/12/07 11:20:15;;;;;;;13.60;3.20;;;;;;;4.86;80.66;100868.06;5032375;28;20029;-73
2021/12/07 11:22:48;;;;;;;17.58;3.30;;;;;;;4.90;80.20;100856.38;5033569;28;20125;-72
2021/12/07 11:25:41;;;;;;;16.00;4.25;;;;;;;5.01;80.99;100859.13;5034000;28;20100;-71
2021/12/07 11:31:15;;;;;;;15.65;3.85;;;;;;;5.26;79.92;100842.50;5033782;28;20041;-70
2021/12/07 11:33:40;;;;;;;16.83;4.00;;;;;;;5.40;77.67;100836.25;5033179;28;20032;-71
2021/12/07 11:36:24;;;;;;;15.65;4.28;;;;;;;5.30;78.29;100833.44;5033800;28;20037;-72
2021/12/07 11:38:51;;;;;;;16.52;4.25;;;;;;;5.29;77.95;100825.63;5033681;28;20075;-71
2021/12/07 11:41:24;;;;;;;18.00;4.15;;;;;;;5.28;79.79;100819.50;5033620;28;20034;-69
2021/12/07 11:43:52;;;;;;;20.67;4.82;;;;;;;5.23;78.91;100811.06;5033309;28;20410;-71
2021/12/07 11:46:20;;;;;;;23.50;5.53;;;;;;;5.03;79.00;100807.16;5032302;28;20421;-70
2021/12/07 11:48:46;;;;;;;25.05;5.65;;;;;;;4.96;79.89;100795.31;5033255;28;20033;-71
2021/12/07 11:51:11;;;;;;;26.20;5.97;;;;;;;4.95;79.75;100785.72;5033172;28;20041;-71
2021/12/07 11:53:37;;;;;;;26.50;5.55;;;;;;;5.01;79.29;100784.47;5032737;28;20039;-71
2021/12/07 11:56:02;;;;;;;26.48;6.18;;;;;;;5.05;78.38;100768.31;5033309;28;20042;-71
2021/12/07 11:58:28;;;;;;;21.27;4.97;;;;;;;5.09;77.92;100751.34;5032739;28;20080;-71
2021/12/07 12:00:55;;;;;;;25.80;5.35;;;;;;;5.10;77.04;100731.91;5033353;28;20477;-71
2021/12/07 12:03:23;;;;;;;22.58;6.25;;;;;;;5.20;76.63;100732.13;5033018;28;20076;-72
2021/12/07 12:05:51;;;;;;;21.88;5.30;;;;;;;5.34;77.79;100730.31;5033209;28;20029;-71
2021/12/07 12:08:20;;;;;;;26.10;5.53;;;;;;;5.46;77.19;100735.59;5033110;28;20092;-72
2021/12/07 12:11:21;;;;;;;27.20;5.53;;;;;;;5.54;76.72;100726.25;5032424;28;20045;-73
2021/12/07 12:14:09;;;;;;;25.47;6.13;;;;;;;5.45;76.18;100722.50;5016672;28;20045;-73
2021/12/07 12:16:41;;;;;;;26.17;6.10;;;;;;;5.52;77.42;100721.09;5032636;28;20079;-72
2021/12/07 12:19:10;;;;;;;23.67;5.88;;;;;;;5.52;76.34;100720.25;5032855;28;20026;-72
2021/12/07 12:21:47;;;;;;;24.77;6.18;;;;;;;5.48;76.41;100714.38;5032357;28;20037;-72
2021/12/07 12:24:25;;;;;;;23.50;4.75;;;;;;;5.45;76.22;100711.94;5031689;28;20503;-71
2021/12/07 12:27:06;;;;;;;17.40;5.00;;;;;;;5.44;76.26;100711.06;5031556;28;20553;-71
2021/12/07 12:29:33;;;;;;;17.53;3.30;;;;;;;5.39;76.25;100700.03;5032306;28;20029;-71
2021/12/07 12:31:59;;;;;;;19.00;3.55;;;;;;;5.41;76.97;100702.56;5032009;28;20116;-71
2021/12/07 12:34:27;;;;;;;8.48;3.00;;;;;;;5.36;76.38;100692.31;5031600;28;20116;-72
2021/12/07 12:36:55;;;;;;;21.95;3.85;;;;;;;5.25;77.91;100686.94;5032446;28;20033;-71
2021/12/07 12:39:38;;;;;;;11.70;3.30;;;;;;;5.05;77.19;100675.19;5032732;28;20040;-71
2021/12/07 12:42:03;;;;;;;15.93;2.92;;;;;;;5.12;78.13;100644.78;5032622;28;20034;-72
2021/12/07 12:44:35;;;;;;;14.88;3.28;;;;;;;5.14;78.43;100634.13;5030571;28;20502;-72
2021/12/07 12:47:00;;;;;;;10.38;3.65;;;;;;;5.01;78.38;100657.88;5032376;28;20473;-72
2021/12/07 12:49:39;;;;;;;16.17;3.03;;;;;;;4.87;77.77;100635.97;5032298;28;20056;-72
2021/12/07 12:52:06;;;;;;;14.10;2.83;;;;;;;4.80;77.92;100612.78;5032559;28;20394;-72
2021/12/07 12:54:41;;;;;;;19.92;2.90;;;;;;;4.70;77.83;100628.38;5032349;28;20124;-72
2021/12/07 12:57:17;;;;;;;13.52;2.85;;;;;;;4.68;78.65;100610.03;5032255;28;20033;-72
2021/12/07 12:59:46;;;;;;;14.93;3.20;;;;;;;4.64;78.36;100605.91;5031795;28;20068;-71
2021/12/07 13:02:13;;;;;;;12.95;2.97;;;;;;;4.61;79.23;100597.38;5032106;28;20033;-72
2021/12/07 13:04:39;;;;;;;13.02;3.20;;;;;;;4.57;80.29;100594.97;5031824;28;20038;-72
2021/12/07 13:07:23;;;;;;;9.88;3.33;;;;;;;4.49;80.50;100592.00;5032243;28;20508;-72
2021/12/07 13:09:55;;;;;;;17.35;4.20;;;;;;;4.45;80.74;100580.00;5031757;28;20025;-72
2021/12/07 13:12:27;;;;;;;17.27;5.50;;;;;;;4.40;80.54;100577.69;5032118;28;20505;-72
2021/12/07 13:14:54;;;;;;;19.05;4.10;;;;;;;4.32;80.08;100571.25;5031604;28;20084;-72
2021/12/07 13:17:29;;;;;;;14.82;4.20;;;;;;;4.29;80.80;100566.22;5032223;28;20033;-72
2021/12/07 13:20:04;;;;;;;17.17;3.83;;;;;;;4.24;80.83;100564.72;5030423;28;20496;-73